createdAt,value
2018-11-20T00:02:37.407Z,3.77
2018-11-20T00:05:24.328Z,3.57
2018-11-20T00:08:12.088Z,3.50
2018-11-20T00:10:57.664Z,3.67
2018-11-20T00:13:46.242Z,4.17
2018-11-20T00:16:32.052Z,3.50
2018-11-20T00:19:18.781Z,3.50
2018-11-20T00:22:05.286Z,3.50
2018-11-20T00:24:52.252Z,3.63
2018-11-20T00:27:43.231Z,3.67
2018-11-20T00:30:31.045Z,3.80
2018-11-20T00:33:38.084Z,3.80
2018-11-20T00:36:28.877Z,4.10
2018-11-20T00:39:15.538Z,4.23
2018-11-20T00:42:12.488Z,4.30
2018-11-20T00:45:03.652Z,4.33
2018-11-20T00:47:48.307Z,4.37
2018-11-20T00:50:39.219Z,4.47
2018-11-20T00:53:38.598Z,3.97
2018-11-20T00:56:54.161Z,4.67
2018-11-20T00:59:36.618Z,4.63
2018-11-20T01:02:33.754Z,4.67
2018-11-20T01:05:37.248Z,5.33
2018-11-20T01:08:13.724Z,4.87
2018-11-20T01:11:10.715Z,4.67
2018-11-20T01:14:04.803Z,5.20
2018-11-20T01:16:52.955Z,5.17
2018-11-20T01:19:41.253Z,4.60
2018-11-20T01:22:24.964Z,5.10
2018-11-20T01:25:16.122Z,4.67
2018-11-20T01:28:04.265Z,4.40
2018-11-20T01:31:01.492Z,4.57
2018-11-20T01:33:48.555Z,4.67
2018-11-20T01:36:35.120Z,5.30
2018-11-20T01:39:34.404Z,5.72
2018-11-20T01:42:21.580Z,5.30
2018-11-20T01:45:08.164Z,5.50
2018-11-20T01:47:49.189Z,5.90
2018-11-20T01:50:55.454Z,6.67
2018-11-20T01:53:39.903Z,5.87
2018-11-20T01:56:18.829Z,6.17
2018-11-20T01:59:05.820Z,6.37
2018-11-20T02:01:48.059Z,6.63
2018-11-20T02:04:38.896Z,7.00
2018-11-20T02:07:20.345Z,6.53
2018-11-20T02:10:08.625Z,6.93
2018-11-20T02:12:52.935Z,6.57
2018-11-20T02:15:39.222Z,6.33
2018-11-20T02:18:37.950Z,6.57
2018-11-20T02:21:27.196Z,6.87
2018-11-20T02:24:30.633Z,6.50
2018-11-20T02:27:27.643Z,7.30
2018-11-20T02:30:15.921Z,6.90
2018-11-20T02:32:56.141Z,6.83
2018-11-20T02:35:35.274Z,7.37
2018-11-20T02:38:31.015Z,6.93
2018-11-20T02:41:22.017Z,6.70
2018-11-20T02:44:04.818Z,6.30
2018-11-20T02:46:59.720Z,6.97
2018-11-20T02:49:50.687Z,6.30
2018-11-20T02:52:44.430Z,6.80
2018-11-20T02:55:38.733Z,6.70
2018-11-20T02:58:35.709Z,6.87
2018-11-20T03:01:21.648Z,6.97
2018-11-20T03:04:08.582Z,6.90
2018-11-20T03:06:55.483Z,7.30
2018-11-20T03:09:46.491Z,7.13
2018-11-20T03:12:44.117Z,7.07
2018-11-20T03:15:30.851Z,7.08
2018-11-20T03:18:17.685Z,6.33
2018-11-20T03:21:03.630Z,6.63
2018-11-20T03:23:50.230Z,7.70
2018-11-20T03:26:50.271Z,8.17
2018-11-20T03:30:16.497Z,7.90
2018-11-20T03:33:10.633Z,8.30
2018-11-20T03:35:51.143Z,8.10
2018-11-20T03:38:37.900Z,7.77
2018-11-20T03:41:26.059Z,8.33
2018-11-20T03:44:14.189Z,8.30
2018-11-20T03:47:00.926Z,7.47
2018-11-20T03:50:00.028Z,8.10
2018-11-20T03:53:08.388Z,8.50
2018-11-20T03:55:58.723Z,8.10
2018-11-20T03:58:42.453Z,8.70
2018-11-20T04:01:30.586Z,7.70
2018-11-20T04:04:24.566Z,7.73
2018-11-20T04:07:05.771Z,8.43
2018-11-20T04:10:00.013Z,6.90
2018-11-20T04:13:00.108Z,7.17
2018-11-20T04:15:45.043Z,8.00
2018-11-20T04:18:33.218Z,7.27
2018-11-20T04:21:13.655Z,8.00
2018-11-20T04:24:00.733Z,6.90
2018-11-20T04:26:47.616Z,7.27
2018-11-20T04:29:36.119Z,7.13
2018-11-20T04:32:23.545Z,6.97
2018-11-20T04:35:19.399Z,7.43
2018-11-20T04:38:10.884Z,7.77
2018-11-20T04:41:05.259Z,7.10
2018-11-20T04:43:44.804Z,7.33
2018-11-20T04:46:33.615Z,7.63
2018-11-20T04:49:24.884Z,7.17
2018-11-20T04:52:24.998Z,7.17
2018-11-20T04:55:25.353Z,7.80
2018-11-20T04:58:05.188Z,7.30
2018-11-20T05:01:08.203Z,8.37
2018-11-20T05:03:51.921Z,7.43
2018-11-20T05:06:42.685Z,7.73
2018-11-20T05:09:35.256Z,7.90
2018-11-20T05:12:21.990Z,7.60
2018-11-20T05:15:09.028Z,8.30
2018-11-20T05:17:56.054Z,8.40
2018-11-20T05:20:41.993Z,8.13
2018-11-20T05:23:18.739Z,8.47
2018-11-20T05:26:12.955Z,8.57
2018-11-20T05:28:59.773Z,8.60
2018-11-20T05:31:45.968Z,8.37
2018-11-20T05:34:23.855Z,7.27
2018-11-20T05:37:14.829Z,7.83
2018-11-20T05:39:56.451Z,8.50
2018-11-20T05:42:50.466Z,7.67
2018-11-20T05:45:38.628Z,7.90
2018-11-20T05:48:36.635Z,7.07
2018-11-20T05:51:22.638Z,7.80
2018-11-20T05:54:14.648Z,8.47
2018-11-20T05:56:51.431Z,8.18
2018-11-20T05:59:33.446Z,8.07
2018-11-20T06:02:19.519Z,7.73
2018-11-20T06:05:13.481Z,8.30
2018-11-20T06:08:19.813Z,8.50
2018-11-20T06:11:12.840Z,8.40
2018-11-20T06:13:55.634Z,8.78
2018-11-20T06:16:50.859Z,8.90
2018-11-20T06:19:37.886Z,8.10
2018-11-20T06:22:26.036Z,9.37
2018-11-20T06:25:14.460Z,10.00
2018-11-20T06:28:11.389Z,10.33
2018-11-20T06:30:55.866Z,8.73
2018-11-20T06:33:42.941Z,9.03
2018-11-20T06:36:25.075Z,9.63
2018-11-20T06:39:16.310Z,9.77
2018-11-20T06:42:03.024Z,9.90
2018-11-20T06:44:54.132Z,10.10
2018-11-20T06:47:43.051Z,9.20
2018-11-20T06:50:31.760Z,10.00
2018-11-20T06:53:19.401Z,10.35
2018-11-20T06:56:13.954Z,10.40
2018-11-20T06:59:01.307Z,10.83
2018-11-20T07:01:53.806Z,10.13
2018-11-20T07:04:43.577Z,10.07
2018-11-20T07:07:43.728Z,10.30
2018-11-20T07:10:40.709Z,10.67
2018-11-20T07:13:52.760Z,10.23
2018-11-20T07:16:41.839Z,10.33
2018-11-20T07:19:23.113Z,10.17
2018-11-20T07:22:24.799Z,10.17
2018-11-20T07:25:15.764Z,10.53
2018-11-20T07:28:09.624Z,10.73
